Flight Track Log - Related Links

Times and Time Zones

All times are in EDT time to prevent confusion due to time zone crossing. See the AIP5006 flight status page for this flight to view local times or setup timezone preferences in your user account.

Time Position Orientation Groundspeed Altitude Reporting Facility
EDT Latitude Longitude Course Direction KTS MPH feet Rate Location/Type
Sat 05:36:04 AM 45.8131 -108.6964 274° West 140 161 6,800  Level Salt Lake Center
Sat 05:37:04 AM 45.8158 -108.7497 274° West 138 159 7,800 992 Climbing Salt Lake Center
Sat 05:38:05 AM 45.8142 -108.8050 268° West 141 162 8,800 1,041 Climbing Salt Lake Center
Sat 05:39:05 AM 45.8139 -108.8583 270° West 136 157 9,900 1,000 Climbing Salt Lake Center
Sat 05:40:05 AM 45.8136 -108.9117 270° West 136 157 10,800 900 Climbing Salt Lake Center
Sat 05:41:05 AM 45.8103 -108.9683 265° West 143 165 11,700 900 Climbing Salt Lake Center
Sat 05:42:05 AM 45.8108 -109.0267 271° West 147 169 12,600 850 Climbing Salt Lake Center
Sat 05:43:05 AM 45.8111 -109.0917 270° West 151 174 13,400 700 Climbing Salt Lake Center
Sat 05:44:05 AM 45.8183 -109.1550 279° West 161 185 14,000 300 Climbing Salt Lake Center
Sat 05:45:05 AM 45.8233 -109.2300 275° West 187 215 14,000  Level Salt Lake Center
Sat 05:46:05 AM 45.8264 -109.3131 273° West 207 238 14,000 50 Level Salt Lake Center
Sat 05:47:05 AM 45.8297 -109.3981 273° West 215 247 14,100  Climbing Salt Lake Center
Sat 05:48:05 AM 45.8347 -109.4811 275° West 213 245 14,000 -50 Descending Salt Lake Center
Sat 05:49:05 AM 45.8397 -109.5644 275° West 212 244 14,000 -50 Level Salt Lake Center
Sat 05:50:05 AM 45.8369 -109.6481 267° West 212 244 13,900  Descending Salt Lake Center
Sat 05:51:05 AM 45.8306 -109.7342 264° West 205 236 14,000 24 Climbing Salt Lake Center
Sat 05:53:00 AM 45.8323 -109.8951 271° West  Level FlightAware Approximate
Sat 05:54:17 AM 45.8414 -109.9853 271° West 210 242 14,000  Level Salt Lake Center
Sat 05:55:17 AM 45.8442 -110.0686 273° West 210 242 14,000  Level Salt Lake Center
Sat 05:56:17 AM 45.8447 -110.1517 271° West 209 241 14,000 50 Level Salt Lake Center
Sat 05:57:18 AM 45.8475 -110.2361 273° West 211 243 14,100 50 Climbing Salt Lake Center
Sat 05:58:18 AM 45.8481 -110.3189 271° West 210 242 14,100  Level Salt Lake Center
Sat 05:59:18 AM 45.8508 -110.4028 273° West 211 243 14,100  Level Salt Lake Center
Sat 06:00:18 AM 45.8489 -110.4869 268° West 212 244 14,100  Level Salt Lake Center
Sat 06:01:18 AM 45.8500 -110.5697 271° West 209 241 14,100  Level Salt Lake Center
Sat 06:02:18 AM 45.8522 -110.6611 272° West 205 236 14,100  Level Salt Lake Center
Sat 06:03:18 AM 45.8539 -110.7464 272° West 208 239 14,100  Level Salt Lake Center
Sat 06:04:18 AM 45.8547 -110.8317 271° West 212 244 14,100 -50 Level Salt Lake Center
Sat 06:05:18 AM 45.8558 -110.9175 271° West 213 245 14,000  Descending Salt Lake Center
Sat 06:06:18 AM 45.8567 -110.9958 271° West 212 244 14,100 50 Climbing Salt Lake Center
Sat 06:07:18 AM 45.8575 -111.0817 271° West 213 245 14,100  Level Salt Lake Center
Sat 06:08:18 AM 45.8597 -111.1672 272° West 213 245 14,100  Level Salt Lake Center
Sat 06:09:18 AM 45.8583 -111.2522 269° West 211 243 14,100  Level Salt Lake Center
Sat 06:10:18 AM 45.8581 -111.3367 270° West 209 241 14,100  Level Salt Lake Center
Sat 06:11:18 AM 45.8581 -111.4203 270° West 207 238 14,100 50 Level Salt Lake Center
Sat 06:12:19 AM 45.8603 -111.4983 272° West 210 242 14,200  Climbing Salt Lake Center
Sat 06:13:19 AM 45.8597 -111.5817 269° West 207 238 14,100 -200 Descending Salt Lake Center
Sat 06:14:19 AM 45.8600 -111.6658 270° West 208 239 13,800 -600 Descending Salt Lake Center
Sat 06:15:19 AM 45.8594 -111.7594 270° West 228 262 12,900 -850 Descending Salt Lake Center
Sat 06:16:19 AM 45.8614 -111.8469 272° West 233 268 12,100 -400 Descending Salt Lake Center
Sat 06:17:19 AM 45.8633 -111.9347 272° West 219 252 12,100  Level Salt Lake Center
Sat 06:18:19 AM 45.8614 -112.0183 268° West 207 238 12,100  Level Salt Lake Center
Sat 06:19:19 AM 45.8603 -112.1000 269° West 203 234 12,100 -100 Level Salt Lake Center
Sat 06:20:19 AM 45.8675 -112.1819 277° West 204 235 11,900 -500 Descending Salt Lake Center
Sat 06:21:19 AM 45.8822 -112.2639 284° West 222 255 11,100 -793 Descending Salt Lake Center
Sat 06:22:20 AM 45.8986 -112.3514 285° West 224 258 10,300 -893 Descending Salt Lake Center
Sat 06:23:20 AM 45.9197 -112.4358 290° West 222 255 9,300 -1,050 Descending Salt Lake Center
Sat 06:24:20 AM 45.9450 -112.5083 297° West 213 245 8,200 -1,100 Descending Salt Lake Center
Sat 06:26:00 AM 45.9548 -112.4975 38° Northeast  Level Estimated

Login

Don't have an account? Register now (free) for customized features, flight alerts, and more!